Time;durP1;ratioP1;P1;durP2;ratioP2;P2;SDS_P1;SDS_P2;PMS_P1;PMS_P2;Temp;Humidity;BMP_temperature;BMP_pressure;BME280_temperature;BME280_humidity;BME280_pressure;Samples;Min_cycle;Max_cycle;Signal;HPM_P1;HPM_P2
2023/05/21 00:00:15;;;;;;;9.90;9.10;;;;;;;15.77;87.73;94906.50;5046823;28;20302;-61
2023/05/21 00:02:42;;;;;;;10.35;9.23;;;;;;;15.85;87.29;94905.16;5046765;28;20311;-63
2023/05/21 00:05:10;;;;;;;9.77;8.63;;;;;;;15.86;86.54;94900.84;5047433;28;20598;-63
2023/05/21 00:07:37;;;;;;;15.02;9.68;;;;;;;15.93;86.41;94897.03;5047442;28;22016;-61
2023/05/21 00:10:04;;;;;;;10.60;9.40;;;;;;;15.97;86.44;94894.22;5046993;28;20302;-63
2023/05/21 00:12:32;;;;;;;10.63;9.63;;;;;;;15.99;86.83;94884.72;5046539;28;20326;-65
2023/05/21 00:14:58;;;;;;;9.98;9.15;;;;;;;15.97;86.46;94890.84;5047352;28;21023;-62
2023/05/21 00:17:25;;;;;;;10.70;8.88;;;;;;;15.92;86.45;94895.38;5047812;28;20205;-62
2023/05/21 00:19:52;;;;;;;10.57;8.88;;;;;;;15.84;86.85;94882.19;5046636;28;20205;-64
2023/05/21 00:22:19;;;;;;;10.32;9.32;;;;;;;15.94;85.83;94891.00;5046465;28;20321;-63
2023/05/21 00:24:46;;;;;;;10.25;9.25;;;;;;;15.75;86.48;94882.72;5046712;28;20206;-63
2023/05/21 00:27:13;;;;;;;10.73;8.75;;;;;;;15.55;86.39;94892.31;5046110;28;20300;-62
2023/05/21 00:29:42;;;;;;;9.80;8.60;;;;;;;15.42;86.70;94886.22;5046910;28;20352;-59
2023/05/21 00:32:09;;;;;;;10.43;9.48;;;;;;;15.32;86.92;94892.75;5046542;28;20548;-59
2023/05/21 00:34:37;;;;;;;10.35;9.38;;;;;;;15.26;86.31;94882.84;5041458;28;20203;-60
2023/05/21 00:37:04;;;;;;;9.75;8.82;;;;;;;15.16;86.58;94881.69;5043750;28;20217;-58
2023/05/21 00:39:30;;;;;;;10.23;8.35;;;;;;;15.12;86.33;94888.69;5046981;28;20202;-59
2023/05/21 00:41:57;;;;;;;11.75;8.88;;;;;;;15.01;86.66;94882.53;5046154;28;21049;-58
2023/05/21 00:44:24;;;;;;;12.63;9.32;;;;;;;15.03;86.48;94880.72;5043214;28;20214;-61
2023/05/21 00:46:53;;;;;;;9.98;8.98;;;;;;;14.93;86.77;94878.63;5047171;28;20731;-61
2023/05/21 00:49:21;;;;;;;9.73;8.70;;;;;;;14.88;86.62;94878.03;5046846;28;20657;-62
2023/05/21 00:51:48;;;;;;;9.50;8.68;;;;;;;14.88;86.69;94880.59;5046219;28;20318;-60
2023/05/21 00:54:14;;;;;;;9.68;8.88;;;;;;;14.92;86.61;94876.16;5046550;28;20687;-59
2023/05/21 00:56:42;;;;;;;9.85;8.95;;;;;;;14.88;86.97;94874.66;5045948;28;20289;-59
2023/05/21 00:59:08;;;;;;;11.57;8.90;;;;;;;14.89;87.07;94878.88;5046972;28;20298;-60
2023/05/21 01:01:35;;;;;;;9.13;8.15;;;;;;;14.91;86.73;94875.31;5046608;28;20297;-61
2023/05/21 01:04:04;;;;;;;10.13;8.50;;;;;;;14.94;86.57;94869.22;5045366;28;20209;-58
2023/05/21 01:06:33;;;;;;;8.57;7.78;;;;;;;15.03;85.79;94876.41;5047158;28;21108;-58
2023/05/21 01:09:00;;;;;;;8.75;8.02;;;;;;;14.97;85.96;94871.63;5046974;28;20203;-60
2023/05/21 01:11:37;;;;;;;7.82;7.20;;;;;;;15.01;85.21;94869.72;5045718;28;20206;-60
2023/05/21 01:14:06;;;;;;;10.13;7.65;;;;;;;14.98;84.89;94870.72;5043925;28;20277;-56
2023/05/21 01:16:35;;;;;;;9.02;8.10;;;;;;;14.98;84.79;94870.72;5044869;28;20202;-58
2023/05/21 01:19:03;;;;;;;8.68;7.97;;;;;;;15.04;84.64;94864.44;5043570;28;20209;-61
2023/05/21 01:21:34;;;;;;;8.43;7.78;;;;;;;15.06;84.91;94865.19;5043618;28;20325;-59
2023/05/21 01:24:04;;;;;;;10.00;7.65;;;;;;;14.92;85.46;94866.75;5043447;28;20210;-60
2023/05/21 01:26:32;;;;;;;8.57;7.78;;;;;;;14.91;85.22;94861.72;5043750;28;20303;-60
2023/05/21 01:28:58;;;;;;;9.10;8.23;;;;;;;14.87;85.05;94857.66;5044302;28;20647;-59
2023/05/21 01:31:31;;;;;;;9.15;8.07;;;;;;;14.87;84.90;94858.47;5042830;28;20329;-58
2023/05/21 01:34:04;;;;;;;12.02;8.45;;;;;;;14.70;85.33;94856.00;5048385;28;20290;-60
2023/05/21 01:36:39;;;;;;;9.10;7.88;;;;;;;14.72;85.28;94854.19;5049213;28;20218;-60
2023/05/21 01:39:14;;;;;;;8.60;7.60;;;;;;;14.76;84.71;94860.81;5049448;28;20241;-59
2023/05/21 01:41:44;;;;;;;7.82;7.07;;;;;;;14.67;85.52;94857.91;5048075;28;20240;-61
2023/05/21 01:44:12;;;;;;;9.35;7.95;;;;;;;14.63;85.42;94860.59;5049679;28;20336;-60
2023/05/21 01:46:39;;;;;;;7.32;6.63;;;;;;;14.65;85.65;94860.53;5047737;28;20341;-60
2023/05/21 01:49:08;;;;;;;10.35;6.97;;;;;;;14.68;85.37;94852.69;5049621;28;20303;-60
2023/05/21 01:51:36;;;;;;;8.43;7.43;;;;;;;14.60;85.49;94850.53;5048668;28;20311;-58
2023/05/21 01:54:03;;;;;;;7.97;6.95;;;;;;;14.71;85.07;94852.53;5049347;28;20297;-60
2023/05/21 01:56:32;;;;;;;7.88;7.10;;;;;;;14.68;84.68;94852.69;5047622;28;20749;-61
2023/05/21 01:59:00;;;;;;;8.15;6.63;;;;;;;14.64;84.35;94853.75;5048540;28;20211;-59
2023/05/21 02:01:29;;;;;;;7.20;6.55;;;;;;;14.57;84.07;94855.00;5048275;28;20289;-61
2023/05/21 02:03:56;;;;;;;7.18;6.47;;;;;;;14.52;84.28;94845.03;5049170;28;20298;-61
2023/05/21 02:06:22;;;;;;;11.38;6.40;;;;;;;14.44;84.21;94839.47;5048581;28;20587;-60
2023/05/21 02:08:49;;;;;;;7.28;6.63;;;;;;;14.51;84.24;94847.66;5048635;28;20296;-58
2023/05/21 02:11:16;;;;;;;7.07;6.20;;;;;;;14.51;84.20;94840.00;5048244;28;20210;-58
2023/05/21 02:13:44;;;;;;;7.60;6.78;;;;;;;14.43;84.40;94849.78;5008504;28;1137907;-59
2023/05/21 02:16:14;;;;;;;6.45;5.88;;;;;;;14.43;84.62;94844.66;5049279;28;20202;-59
2023/05/21 02:18:42;;;;;;;7.30;6.60;;;;;;;14.47;84.88;94835.94;5049702;28;22043;-58
2023/05/21 02:21:10;;;;;;;7.03;6.47;;;;;;;14.42;85.14;94837.91;5050056;28;20234;-58
2023/05/21 02:23:36;;;;;;;7.13;6.45;;;;;;;14.40;84.90;94842.22;5049928;28;20221;-59
2023/05/21 02:26:03;;;;;;;7.72;6.97;;;;;;;14.45;85.20;94850.53;5048939;28;20226;-58
2023/05/21 02:28:31;;;;;;;7.07;6.38;;;;;;;14.43;85.08;94852.34;5048428;28;20747;-58
2023/05/21 02:30:59;;;;;;;7.45;6.75;;;;;;;14.39;85.24;94846.50;5049980;28;20206;-60
2023/05/21 02:33:26;;;;;;;7.60;6.93;;;;;;;14.38;85.19;94837.19;5048702;28;20228;-59
2023/05/21 02:35:53;;;;;;;8.15;7.13;;;;;;;14.31;85.67;94828.22;5049875;28;20293;-58
2023/05/21 02:38:21;;;;;;;26.77;17.52;;;;;;;14.20;85.97;94835.59;5049273;28;20810;-60
2023/05/21 02:40:48;;;;;;;35.28;23.80;;;;;;;14.11;86.62;94836.88;5049334;28;20319;-60
2023/05/21 02:43:15;;;;;;;10.70;9.60;;;;;;;14.10;87.09;94827.59;5048281;28;20467;-60
2023/05/21 02:45:42;;;;;;;11.30;10.07;;;;;;;14.08;87.14;94834.50;5049411;28;20301;-58
2023/05/21 02:48:10;;;;;;;10.13;8.88;;;;;;;14.13;87.24;94832.50;5049272;28;20325;-60
2023/05/21 02:50:36;;;;;;;9.85;7.57;;;;;;;14.11;87.46;94834.31;5048348;28;20226;-61
2023/05/21 02:53:03;;;;;;;11.48;8.75;;;;;;;14.02;87.49;94832.25;5048661;28;20313;-59
2023/05/21 02:55:30;;;;;;;8.45;7.85;;;;;;;13.93;87.92;94827.59;5049480;28;21290;-59
2023/05/21 02:57:56;;;;;;;21.15;7.93;;;;;;;13.89;87.91;94826.91;5047702;28;20352;-58
2023/05/21 03:00:23;;;;;;;9.52;8.32;;;;;;;13.92;87.89;94831.06;5049563;28;20325;-59
2023/05/21 03:02:50;;;;;;;10.18;7.63;;;;;;;13.94;87.86;94829.25;5049045;28;20679;-63
2023/05/21 03:05:18;;;;;;;10.65;8.20;;;;;;;13.91;87.67;94835.34;5049520;28;20995;-61
2023/05/21 03:07:44;;;;;;;15.98;9.40;;;;;;;13.87;87.79;94838.94;5048601;28;20689;-60
2023/05/21 03:10:11;;;;;;;11.48;8.68;;;;;;;13.84;87.80;94843.41;5049614;28;20207;-57
2023/05/21 03:12:38;;;;;;;18.13;8.80;;;;;;;13.83;87.88;94841.75;5049356;28;20337;-58
2023/05/21 03:15:05;;;;;;;10.70;7.93;;;;;;;13.87;87.68;94845.78;5047620;28;20297;-58
2023/05/21 03:17:32;;;;;;;8.73;7.85;;;;;;;13.87;87.69;94843.22;5047042;28;20297;-58
2023/05/21 03:19:58;;;;;;;8.45;7.68;;;;;;;13.94;87.46;94847.13;5048513;28;20301;-59
2023/05/21 03:22:26;;;;;;;8.32;7.53;;;;;;;13.91;87.33;94843.00;5046561;28;20293;-60
2023/05/21 03:24:53;;;;;;;8.15;7.45;;;;;;;13.95;87.07;94846.22;5048641;28;20333;-59
2023/05/21 03:27:19;;;;;;;9.43;8.30;;;;;;;14.02;86.90;94842.47;5048080;28;20218;-57
2023/05/21 03:29:46;;;;;;;10.05;7.38;;;;;;;14.07;87.02;94845.63;5048606;28;20234;-58
2023/05/21 03:32:13;;;;;;;10.07;7.88;;;;;;;14.16;86.66;94849.44;5048147;28;20289;-59
2023/05/21 03:34:40;;;;;;;9.52;7.70;;;;;;;14.19;86.60;94850.09;5048854;28;20750;-59
2023/05/21 03:37:06;;;;;;;9.27;7.15;;;;;;;14.14;87.09;94848.69;5048814;28;20709;-60
2023/05/21 03:39:34;;;;;;;9.18;8.25;;;;;;;14.21;86.39;94843.19;5047326;28;20261;-60
2023/05/21 03:42:01;;;;;;;19.08;7.68;;;;;;;14.23;86.28;94850.78;5048415;28;20348;-59
2023/05/21 03:44:31;;;;;;;14.30;6.80;;;;;;;14.22;86.20;94852.50;5047960;28;20297;-59
2023/05/21 03:46:57;;;;;;;11.20;8.45;;;;;;;14.32;86.03;94850.31;5048642;28;20226;-58
2023/05/21 03:49:25;;;;;;;8.20;7.50;;;;;;;14.35;85.43;94844.22;5047599;28;20210;-60
2023/05/21 03:51:52;;;;;;;16.20;6.85;;;;;;;14.40;85.64;94847.34;5047718;28;20229;-60
2023/05/21 03:54:19;;;;;;;11.50;6.75;;;;;;;14.54;85.29;94845.78;5047335;28;20212;-59
2023/05/21 03:56:47;;;;;;;12.73;7.90;;;;;;;14.62;85.10;94845.34;5048532;28;20297;-57
2023/05/21 03:59:14;;;;;;;10.68;7.35;;;;;;;14.65;85.33;94845.19;5047283;28;20589;-60
2023/05/21 04:01:41;;;;;;;7.30;6.57;;;;;;;14.62;85.57;94838.50;5048219;28;20238;-61
2023/05/21 04:04:08;;;;;;;15.23;7.45;;;;;;;14.61;85.31;94841.97;5047530;28;20198;-61
2023/05/21 04:06:34;;;;;;;11.07;7.75;;;;;;;14.64;84.98;94843.53;5048061;28;20332;-60
2023/05/21 04:09:01;;;;;;;11.43;8.20;;;;;;;14.69;85.09;94846.69;5047039;28;20329;-59
2023/05/21 04:11:28;;;;;;;19.10;7.30;;;;;;;14.77;84.79;94846.28;5047427;28;20209;-59
2023/05/21 04:13:56;;;;;;;10.55;7.90;;;;;;;14.85;84.49;94834.72;5047780;28;20692;-59
2023/05/21 04:16:23;;;;;;;7.57;6.60;;;;;;;14.97;83.81;94839.19;5048159;28;20430;-59
2023/05/21 04:18:50;;;;;;;10.30;6.78;;;;;;;15.01;83.56;94834.72;5047473;28;20285;-60
2023/05/21 04:21:16;;;;;;;7.85;6.88;;;;;;;15.14;82.99;94838.25;5046297;28;20581;-59
2023/05/21 04:23:43;;;;;;;8.05;7.05;;;;;;;15.24;82.93;94836.03;5047515;28;20333;-61
2023/05/21 04:26:11;;;;;;;9.52;7.15;;;;;;;15.30;82.81;94840.81;5047899;28;20672;-60
2023/05/21 04:28:40;;;;;;;8.05;6.80;;;;;;;15.39;82.69;94834.34;5047268;28;20256;-60
2023/05/21 04:31:11;;;;;;;10.73;7.75;;;;;;;15.39;82.81;94824.91;5047814;28;20656;-61
2023/05/21 04:33:40;;;;;;;15.07;8.05;;;;;;;15.51;83.37;94829.38;5047426;28;20242;-60
2023/05/21 04:36:08;;;;;;;9.77;7.20;;;;;;;15.55;83.67;94846.22;5048067;28;20206;-59
2023/05/21 04:38:35;;;;;;;12.32;8.02;;;;;;;15.62;83.16;94837.28;5047119;28;20241;-62
2023/05/21 04:41:03;;;;;;;11.85;8.88;;;;;;;15.72;82.90;94841.91;5046536;28;20301;-61
2023/05/21 04:43:30;;;;;;;17.02;8.50;;;;;;;15.84;82.35;94838.63;5046876;28;22215;-61
2023/05/21 04:45:57;;;;;;;11.02;7.80;;;;;;;15.99;82.01;94843.69;5046160;28;20984;-63
2023/05/21 04:48:25;;;;;;;16.17;8.20;;;;;;;16.07;81.64;94835.56;5047605;28;20352;-59
2023/05/21 04:50:53;;;;;;;8.07;7.20;;;;;;;16.24;81.47;94840.53;5046324;28;20316;-61
2023/05/21 04:53:20;;;;;;;8.93;8.10;;;;;;;16.38;81.01;94838.88;5047296;28;20208;-60
2023/05/21 04:55:47;;;;;;;11.85;7.50;;;;;;;16.49;80.19;94844.19;5047063;28;20210;-61
2023/05/21 04:58:16;;;;;;;17.75;8.55;;;;;;;16.56;80.24;94845.47;5046325;28;20202;-61
2023/05/21 05:00:45;;;;;;;11.45;8.02;;;;;;;16.64;80.30;94844.09;5046114;28;20214;-60
2023/05/21 05:03:12;;;;;;;15.00;7.72;;;;;;;16.76;79.86;94842.56;5047207;28;20202;-61
2023/05/21 05:05:40;;;;;;;13.43;7.50;;;;;;;16.80;80.04;94838.06;5046946;28;20319;-62
2023/05/21 05:08:07;;;;;;;13.13;7.57;;;;;;;16.92;80.15;94843.25;5047142;28;21332;-59
2023/05/21 05:10:33;;;;;;;10.90;8.63;;;;;;;17.10;80.07;94841.28;5046091;28;20229;-59
2023/05/21 05:13:00;;;;;;;7.75;7.15;;;;;;;17.41;79.22;94839.34;5046293;28;20710;-60
2023/05/21 05:15:27;;;;;;;10.00;7.65;;;;;;;17.81;77.20;94837.66;5044583;28;20715;-60
2023/05/21 05:17:55;;;;;;;8.05;7.32;;;;;;;18.69;74.81;94834.28;5045070;28;20866;-60
2023/05/21 05:20:21;;;;;;;11.52;7.75;;;;;;;20.16;67.55;94838.28;5045856;28;20285;-60
2023/05/21 05:22:50;;;;;;;7.47;6.88;;;;;;;21.61;62.15;94845.94;5044585;28;20841;-60
2023/05/21 05:25:16;;;;;;;7.78;7.20;;;;;;;23.03;57.81;94836.72;5044955;28;20234;-61
2023/05/21 05:27:43;;;;;;;11.30;7.13;;;;;;;24.19;53.86;94829.06;5045679;28;20253;-62
2023/05/21 05:30:10;;;;;;;7.10;6.50;;;;;;;24.08;53.61;94824.84;5046814;28;20312;-61
2023/05/21 05:32:37;;;;;;;7.88;7.15;;;;;;;23.43;54.98;94828.91;5046047;28;20225;-61
2023/05/21 05:35:04;;;;;;;7.68;6.05;;;;;;;22.82;55.43;94829.03;5046417;28;21267;-61
2023/05/21 05:37:32;;;;;;;10.88;6.97;;;;;;;22.64;56.49;94833.16;5046567;28;20203;-62
2023/05/21 05:40:00;;;;;;;11.35;6.90;;;;;;;23.13;55.79;94829.81;5046523;28;20209;-60
2023/05/21 05:42:27;;;;;;;8.57;7.25;;;;;;;24.03;52.61;94825.25;5045917;28;20348;-60
2023/05/21 05:44:53;;;;;;;8.93;7.75;;;;;;;24.41;51.72;94831.38;5046275;28;20301;-59
2023/05/21 05:47:20;;;;;;;7.18;6.50;;;;;;;24.24;51.91;94825.13;5046026;28;20349;-60
2023/05/21 05:49:47;;;;;;;8.80;7.97;;;;;;;23.92;52.73;94829.78;5046356;28;20252;-61
2023/05/21 05:52:14;;;;;;;9.73;8.90;;;;;;;23.49;53.21;94833.56;5045577;28;20305;-61
2023/05/21 05:54:40;;;;;;;10.52;9.60;;;;;;;23.46;54.31;94822.66;5046358;28;20297;-60
2023/05/21 05:57:08;;;;;;;13.00;8.90;;;;;;;24.20;52.65;94813.34;5046670;28;20225;-62
2023/05/21 05:59:35;;;;;;;11.75;9.77;;;;;;;26.00;48.23;94827.47;5046032;28;20783;-61
2023/05/21 06:02:02;;;;;;;10.20;8.07;;;;;;;26.39;46.89;94825.38;5046166;28;20214;-61
2023/05/21 06:04:29;;;;;;;9.02;7.45;;;;;;;27.84;44.94;94818.28;5046632;28;20202;-60
2023/05/21 06:06:56;;;;;;;11.57;8.02;;;;;;;29.53;41.04;94825.91;5046772;28;20707;-63
2023/05/21 06:09:23;;;;;;;12.38;8.13;;;;;;;31.50;35.02;94815.03;5045905;28;20632;-61
2023/05/21 06:11:50;;;;;;;9.07;6.85;;;;;;;33.37;32.89;94809.25;5045753;28;20234;-61
2023/05/21 06:14:18;;;;;;;9.48;7.07;;;;;;;36.27;28.67;94800.81;5045655;28;20361;-62
2023/05/21 06:16:45;;;;;;;11.93;6.93;;;;;;;39.28;25.16;94792.59;5046291;28;20735;-63
2023/05/21 06:19:11;;;;;;;8.77;6.72;;;;;;;39.80;23.88;94789.88;5049037;28;20293;-60
2023/05/21 06:21:38;;;;;;;7.22;6.57;;;;;;;39.42;22.87;94785.94;5049636;28;20329;-59
2023/05/21 06:24:05;;;;;;;7.95;6.32;;;;;;;38.74;23.37;94791.16;5049693;28;20285;-62
2023/05/21 06:26:32;;;;;;;7.82;7.07;;;;;;;39.58;21.80;94775.66;5050053;28;20658;-62
2023/05/21 06:28:59;;;;;;;17.45;6.28;;;;;;;41.24;19.77;94775.88;5049340;28;20341;-62
2023/05/21 06:31:27;;;;;;;6.30;5.65;;;;;;;42.36;19.30;94777.78;5049938;28;20692;-63
2023/05/21 06:33:54;;;;;;;6.22;5.72;;;;;;;39.21;20.74;94785.78;5049954;28;20213;-61
2023/05/21 06:36:21;;;;;;;6.00;5.40;;;;;;;35.45;24.60;94786.63;5049875;28;20321;-64
2023/05/21 06:38:48;;;;;;;9.45;5.35;;;;;;;31.86;29.23;94780.06;5049485;28;20645;-62
2023/05/21 06:41:14;;;;;;;6.38;5.10;;;;;;;29.85;33.33;94783.81;5049809;28;20368;-62
2023/05/21 06:43:41;;;;;;;10.27;4.70;;;;;;;28.55;34.34;94781.00;5049598;28;20202;-61
2023/05/21 06:46:07;;;;;;;5.40;4.88;;;;;;;27.91;36.61;94785.31;5049832;28;20289;-63
2023/05/21 06:48:35;;;;;;;6.88;5.55;;;;;;;27.00;37.52;94777.47;5048886;28;20707;-59
2023/05/21 06:51:02;;;;;;;7.72;5.13;;;;;;;26.32;40.14;94775.66;5048865;28;20226;-62
2023/05/21 06:53:29;;;;;;;5.40;5.00;;;;;;;25.83;41.06;94784.06;5048486;28;20234;-60
2023/05/21 06:55:55;;;;;;;6.18;5.68;;;;;;;25.61;41.41;94780.13;5049462;28;20289;-59
2023/05/21 06:58:22;;;;;;;7.70;5.45;;;;;;;25.45;41.84;94775.59;5049458;28;20311;-61
2023/05/21 07:00:49;;;;;;;6.57;5.38;;;;;;;25.19;42.62;94783.31;5049760;28;20356;-61
2023/05/21 07:03:15;;;;;;;11.25;5.15;;;;;;;25.70;41.21;94780.09;5049705;28;20307;-61
2023/05/21 07:05:43;;;;;;;6.53;4.82;;;;;;;27.46;37.99;94770.91;5048847;28;20205;-61
2023/05/21 07:08:10;;;;;;;6.53;4.45;;;;;;;31.55;31.89;94762.75;5049610;28;21833;-60
2023/05/21 07:10:37;;;;;;;10.43;4.60;;;;;;;35.10;25.13;94757.13;5049347;28;20343;-60
2023/05/21 07:13:03;;;;;;;7.90;5.25;;;;;;;37.46;22.57;94762.50;5047276;28;20321;-61
2023/05/21 07:15:30;;;;;;;5.18;4.68;;;;;;;39.09;21.04;94746.78;5045831;28;20210;-63
2023/05/21 07:17:57;;;;;;;8.00;5.47;;;;;;;39.92;20.61;94750.72;5048135;28;20230;-63
2023/05/21 07:20:23;;;;;;;5.38;4.97;;;;;;;38.35;21.41;94755.47;5047146;28;20321;-62
2023/05/21 07:22:51;;;;;;;6.90;5.43;;;;;;;37.53;22.98;94759.75;5047296;28;20281;-62
2023/05/21 07:25:18;;;;;;;6.13;5.50;;;;;;;37.74;21.84;94762.72;5046095;28;20777;-61
2023/05/21 07:27:45;;;;;;;8.82;4.80;;;;;;;37.02;22.08;94771.59;5047048;28;20226;-63
2023/05/21 07:30:12;;;;;;;6.93;5.30;;;;;;;36.99;21.73;94762.25;5046495;28;20708;-61
2023/05/21 07:32:38;;;;;;;6.43;5.22;;;;;;;37.94;21.74;94765.06;5048202;28;20299;-63
2023/05/21 07:35:06;;;;;;;6.03;4.80;;;;;;;37.37;21.88;94763.84;5048382;28;20706;-63
2023/05/21 07:37:33;;;;;;;5.78;5.38;;;;;;;36.98;23.06;94759.81;5048521;28;20199;-61
2023/05/21 07:40:01;;;;;;;7.28;4.43;;;;;;;36.37;22.90;94758.00;5048211;28;20396;-59
2023/05/21 07:42:28;;;;;;;6.25;4.85;;;;;;;37.18;21.82;94754.25;5048701;28;20205;-61
2023/05/21 07:44:54;;;;;;;5.15;4.75;;;;;;;36.87;22.04;94763.22;5048851;28;20293;-63
2023/05/21 07:47:22;;;;;;;6.35;5.15;;;;;;;36.30;22.55;94763.34;5048130;28;20675;-62
2023/05/21 07:49:49;;;;;;;7.78;5.60;;;;;;;35.45;23.54;94764.69;5048283;28;20751;-62
2023/05/21 07:52:15;;;;;;;8.18;5.38;;;;;;;35.07;24.38;94759.38;5048348;28;20211;-62
2023/05/21 07:54:42;;;;;;;6.93;6.03;;;;;;;36.67;23.15;94758.88;5048093;28;20301;-62
2023/05/21 07:57:10;;;;;;;15.25;8.52;;;;;;;35.75;23.47;94760.44;5048357;28;20289;-63
2023/05/21 07:59:37;;;;;;;9.82;5.43;;;;;;;35.99;23.52;94755.41;5047889;28;20330;-60
2023/05/21 08:02:04;;;;;;;14.27;8.70;;;;;;;36.03;23.33;94751.31;5046551;28;20206;-60
2023/05/21 08:04:30;;;;;;;5.80;5.30;;;;;;;36.91;22.30;94749.28;5047392;28;20301;-62
2023/05/21 08:06:57;;;;;;;9.50;5.40;;;;;;;35.19;24.12;94762.94;5047919;28;20202;-61
2023/05/21 08:09:24;;;;;;;9.80;6.60;;;;;;;32.39;26.87;94750.59;5047471;28;20225;-62
2023/05/21 08:11:51;;;;;;;14.02;6.05;;;;;;;30.66;29.59;94762.13;5047710;28;20217;-62
2023/05/21 08:14:19;;;;;;;4.38;4.00;;;;;;;27.95;29.36;94760.50;5047848;28;20414;-61
2023/05/21 08:16:46;;;;;;;5.65;5.15;;;;;;;26.14;34.63;94766.25;5047524;28;21249;-61
2023/05/21 08:19:12;;;;;;;5.10;4.60;;;;;;;25.24;37.38;94767.28;5047435;28;20285;-60
2023/05/21 08:21:39;;;;;;;6.20;3.60;;;;;;;24.48;35.55;94779.69;5047519;28;20760;-63
2023/05/21 08:24:06;;;;;;;4.90;4.15;;;;;;;24.27;36.27;94772.88;5047595;28;20225;-60
2023/05/21 08:26:33;;;;;;;5.10;3.53;;;;;;;24.77;34.73;94760.38;5047550;28;20210;-58
2023/05/21 08:28:59;;;;;;;6.72;4.45;;;;;;;28.00;29.62;94758.19;5046896;28;21367;-61
2023/05/21 08:31:27;;;;;;;8.13;4.28;;;;;;;28.23;28.44;94764.38;5047374;28;20297;-59
2023/05/21 08:33:55;;;;;;;8.43;4.28;;;;;;;28.15;26.75;94767.00;5047358;28;20301;-62
2023/05/21 08:36:22;;;;;;;9.20;3.50;;;;;;;28.49;25.88;94771.19;5047584;28;20203;-60
2023/05/21 08:38:49;;;;;;;7.07;4.18;;;;;;;27.72;27.77;94776.81;5046301;28;20198;-60
2023/05/21 08:41:18;;;;;;;6.60;3.95;;;;;;;26.99;28.79;94778.44;5045568;28;20210;-61
2023/05/21 08:43:47;;;;;;;5.20;4.00;;;;;;;26.06;29.90;94767.00;5046529;28;20700;-60
2023/05/21 08:46:14;;;;;;;4.95;4.50;;;;;;;26.20;30.82;94766.44;5047414;28;20300;-61
2023/05/21 08:48:43;;;;;;;8.25;3.85;;;;;;;27.02;28.11;94768.50;5047033;28;20250;-61
2023/05/21 08:51:09;;;;;;;6.55;3.00;;;;;;;26.96;28.44;94763.94;5047582;28;20317;-62
2023/05/21 08:53:36;;;;;;;20.48;3.88;;;;;;;27.72;27.58;94768.16;5046573;28;20201;-62
2023/05/21 08:56:04;;;;;;;5.88;3.80;;;;;;;27.67;27.41;94760.84;5046871;28;20807;-61
2023/05/21 08:58:32;;;;;;;4.32;3.80;;;;;;;27.03;28.20;94751.88;5046541;28;20345;-63
2023/05/21 09:00:59;;;;;;;3.75;3.50;;;;;;;27.76;27.42;94761.63;5046572;28;20226;-62
2023/05/21 09:03:26;;;;;;;9.48;3.83;;;;;;;28.00;27.58;94763.41;5046038;28;20321;-61
2023/05/21 09:05:55;;;;;;;4.65;3.13;;;;;;;29.01;26.43;94769.72;5045255;28;20211;-63
2023/05/21 09:08:27;;;;;;;3.35;3.15;;;;;;;29.57;25.73;94759.94;5046398;28;21586;-63
2023/05/21 09:10:54;;;;;;;4.88;3.70;;;;;;;29.53;25.96;94761.28;5044440;28;20285;-62
2023/05/21 09:13:21;;;;;;;5.85;3.92;;;;;;;29.08;26.41;94757.59;5045914;28;20333;-63
2023/05/21 09:15:48;;;;;;;3.80;3.40;;;;;;;29.27;26.65;94752.91;5044105;28;20234;-62
2023/05/21 09:18:15;;;;;;;4.13;3.72;;;;;;;31.87;23.92;94744.91;5045362;28;20323;-63
2023/05/21 09:20:42;;;;;;;4.28;3.28;;;;;;;29.40;25.67;94758.44;5045237;28;20310;-64
2023/05/21 09:23:15;;;;;;;10.05;3.70;;;;;;;29.29;26.58;94761.41;5045480;28;20753;-63
2023/05/21 09:25:45;;;;;;;6.90;3.20;;;;;;;28.55;28.12;94763.50;5045663;28;20285;-63
2023/05/21 09:28:12;;;;;;;4.40;3.38;;;;;;;27.80;29.42;94757.72;5045755;28;20230;-63
2023/05/21 09:30:45;;;;;;;4.95;3.40;;;;;;;27.27;29.86;94765.94;5045568;28;20344;-66
2023/05/21 09:33:12;;;;;;;6.53;3.97;;;;;;;26.55;31.20;94757.69;5046541;28;20742;-61
2023/05/21 09:35:46;;;;;;;5.90;2.97;;;;;;;25.84;31.77;94785.72;5046076;28;20877;-62
2023/05/21 09:38:14;;;;;;;5.70;3.85;;;;;;;25.40;33.13;94772.63;5047689;28;20206;-60
2023/05/21 09:40:45;;;;;;;4.72;3.72;;;;;;;24.71;33.64;94767.94;5047051;28;20238;-59
2023/05/21 09:43:15;;;;;;;9.88;3.50;;;;;;;24.17;33.45;94761.69;5046921;28;20199;-61
2023/05/21 09:45:51;;;;;;;6.78;3.80;;;;;;;23.97;35.09;94773.09;5046840;28;20263;-63
2023/05/21 09:48:17;;;;;;;6.30;3.90;;;;;;;23.84;34.29;94754.38;5046149;28;20226;-62
2023/05/21 09:50:44;;;;;;;4.38;3.35;;;;;;;23.99;33.37;94768.56;5046336;28;20242;-60
2023/05/21 09:53:14;;;;;;;4.15;3.70;;;;;;;23.77;33.40;94763.66;5047897;28;20203;-61
2023/05/21 09:55:40;;;;;;;7.97;3.65;;;;;;;23.67;33.54;94761.91;5050736;28;20210;-62
2023/05/21 09:58:08;;;;;;;3.63;3.33;;;;;;;23.95;34.06;94756.84;5050895;28;20691;-62
2023/05/21 10:00:34;;;;;;;5.90;3.88;;;;;;;24.32;33.78;94754.28;5049346;28;20214;-61
2023/05/21 10:03:01;;;;;;;3.92;3.55;;;;;;;24.37;32.92;94752.09;5049629;28;20317;-60
2023/05/21 10:05:30;;;;;;;5.22;3.42;;;;;;;23.92;33.48;94741.53;5049790;28;20289;-59
2023/05/21 10:08:00;;;;;;;4.07;3.67;;;;;;;23.83;34.19;94731.97;5050242;28;20279;-61
2023/05/21 10:10:29;;;;;;;5.63;3.80;;;;;;;23.79;33.99;94746.19;5048899;28;20213;-60
2023/05/21 10:13:00;;;;;;;4.75;2.88;;;;;;;23.67;34.02;94742.94;5050414;28;20261;-62
2023/05/21 10:15:31;;;;;;;3.75;3.45;;;;;;;23.92;35.49;94741.53;5049375;28;20775;-61
2023/05/21 10:18:00;;;;;;;3.60;3.30;;;;;;;24.44;34.27;94742.78;5049759;28;20289;-62
2023/05/21 10:20:27;;;;;;;7.25;3.92;;;;;;;24.48;34.63;94743.31;5048537;28;20635;-60
2023/05/21 10:22:55;;;;;;;5.35;4.13;;;;;;;24.93;33.31;94733.75;5048070;28;20306;-61
2023/05/21 10:25:23;;;;;;;7.00;3.63;;;;;;;24.51;32.19;94737.81;5047940;28;20230;-61
2023/05/21 10:27:54;;;;;;;3.83;3.35;;;;;;;23.49;33.82;94732.41;5049125;28;20213;-60
2023/05/21 10:30:21;;;;;;;4.38;3.40;;;;;;;22.77;35.02;94737.91;5048534;28;20524;-60
2023/05/21 10:32:49;;;;;;;4.85;3.90;;;;;;;22.64;35.65;94737.31;5048460;28;20734;-61
2023/05/21 10:35:16;;;;;;;4.65;3.45;;;;;;;22.87;36.26;94728.41;5050483;28;20197;-59
2023/05/21 10:37:44;;;;;;;5.75;3.83;;;;;;;23.33;35.69;94732.13;5050089;28;20322;-60
2023/05/21 10:40:11;;;;;;;4.05;3.75;;;;;;;23.53;35.18;94738.97;5049390;28;20342;-62
2023/05/21 10:43:06;;;;;;;4.93;3.28;;;;;;;23.38;34.60;94727.38;5048399;28;20285;-62
2023/05/21 10:45:46;;;;;;;4.03;3.72;;;;;;;23.00;35.90;94728.16;5049481;28;20749;-62
2023/05/21 10:48:27;;;;;;;5.13;3.83;;;;;;;22.70;36.86;94727.25;5048738;28;20197;-61
2023/05/21 10:51:12;;;;;;;3.95;3.65;;;;;;;22.62;37.32;94731.47;5049070;28;20226;-59
2023/05/21 10:54:00;;;;;;;4.95;4.07;;;;;;;22.73;36.97;94731.38;5047732;28;20687;-59
2023/05/21 10:56:32;;;;;;;4.45;3.70;;;;;;;22.79;37.31;94730.84;5045806;28;20210;-60
2023/05/21 10:59:20;;;;;;;4.57;3.85;;;;;;;22.99;37.60;94727.34;5048540;28;20653;-60
2023/05/21 11:01:51;;;;;;;4.15;3.45;;;;;;;22.95;37.03;94727.75;5047325;28;20221;-62
2023/05/21 11:04:22;;;;;;;7.82;3.55;;;;;;;22.97;36.74;94718.88;5046249;28;20222;-62
2023/05/21 11:06:49;;;;;;;5.70;3.58;;;;;;;22.91;37.30;94723.78;5047418;28;20321;-61
2023/05/21 11:09:16;;;;;;;4.43;4.03;;;;;;;22.66;37.41;94719.88;5046920;28;20782;-60
2023/05/21 11:11:47;;;;;;;9.00;4.55;;;;;;;22.29;38.66;94728.19;5047431;28;20631;-62
2023/05/21 11:14:30;;;;;;;4.47;4.07;;;;;;;22.24;39.32;94725.22;5047181;28;20237;-61
2023/05/21 11:16:57;;;;;;;8.20;3.65;;;;;;;22.02;39.43;94728.75;5049654;28;20218;-63
2023/05/21 11:19:34;;;;;;;5.57;4.05;;;;;;;21.80;40.04;94725.47;5049507;28;20217;-61
2023/05/21 11:22:01;;;;;;;5.03;3.75;;;;;;;21.90;40.22;94710.84;5044231;28;20212;-59
2023/05/21 11:24:32;;;;;;;4.10;3.70;;;;;;;22.17;40.04;94726.66;5046710;28;20206;-60
2023/05/21 11:27:03;;;;;;;4.13;3.28;;;;;;;22.54;38.75;94718.34;5044537;28;20226;-62
2023/05/21 11:29:40;;;;;;;9.50;3.92;;;;;;;22.90;38.53;94714.38;5047066;28;20222;-60
2023/05/21 11:32:11;;;;;;;4.30;3.85;;;;;;;23.14;38.32;94713.97;5045748;28;20607;-61
2023/05/21 11:34:40;;;;;;;12.23;4.40;;;;;;;23.15;38.74;94707.84;5043823;28;20645;-62